F/V Quentin Gregoire — FMIU — position and weather

sailwx.info

Track history (hours):
 
Tides and Currents Weather Stations Pressure Air Temp Water Temp Dewpoint Dewpoint Depression Visibility Wind Speed Wind Dir Waves Ship Positions

F/V Quentin Gregoire

Last reported at 2018-Feb-23 10:30 UTC. Time now 2018-Feb-23 10:46 UTC.
Position N 47°18' W 002°31'.

Length 18 m.

Type: Fishing. MMSI: 228240600.

Date/timePositionNaut miles runAvg speedWind from/ knotsBaromVisibWave heightAir tempDewpointWater temp
2018-Feb-23 10:30N 47°18' W 002°31'0 0.0
2018-Feb-23 09:59N 47°18' W 002°31'0 0.0
2018-Feb-23 09:29N 47°18' W 002°31'0 0.0
2018-Feb-23 09:00N 47°18' W 002°31'0 0.0
2018-Feb-23 07:53N 47°18' W 002°31'0 0.0
2018-Feb-23 07:22N 47°18' W 002°31'0 0.0
2018-Feb-23 06:59N 47°18' W 002°31'0 0.0
2018-Feb-23 06:30N 47°18' W 002°31'0 0.0
2018-Feb-23 05:59N 47°18' W 002°31'0 0.0
2018-Feb-23 05:29N 47°18' W 002°31'0 0.0
2018-Feb-23 04:58N 47°18' W 002°31'0 0.0
2018-Feb-23 04:30N 47°18' W 002°31'0 0.0
2018-Feb-23 03:58N 47°18' W 002°31'0 0.0
2018-Feb-23 03:30N 47°18' W 002°31'0 0.0
2018-Feb-23 03:00N 47°18' W 002°31'0 0.0
2018-Feb-23 02:30N 47°18' W 002°31'0 0.0
2018-Feb-23 02:00N 47°18' W 002°31'0 0.0
2018-Feb-23 01:30N 47°18' W 002°31'0 0.0
2018-Feb-23 01:00N 47°18' W 002°31'0 0.0
2018-Feb-23 00:31N 47°18' W 002°31'0 0.0
2018-Feb-23 00:00N 47°18' W 002°31'0 0.0
2018-Feb-22 23:30N 47°18' W 002°31'0 0.0
2018-Feb-22 23:00N 47°18' W 002°31'0 0.2
2018-Feb-22 22:30N 47°18' W 002°31'0 0.0
2018-Feb-22 21:59N 47°18' W 002°31'2 4.5
2018-Feb-22 21:30N 47°19' W 002°34'4 8.7
2018-Feb-22 21:00N 47°19' W 002°40'5 8.8
2018-Feb-22 20:28N 47°16' W 002°46'3 5.0
2018-Feb-22 19:58N 47°14' W 002°49'1 2.6
2018-Feb-22 19:30N 47°15' W 002°50'2 2.9
2018-Feb-22 18:59N 47°16' W 002°52'1 2.5
2018-Feb-22 18:30N 47°16' W 002°54'1 2.4
2018-Feb-22 17:53N 47°15' W 002°55'2 0.9
2018-Feb-22 15:42N 47°13' W 002°57'1 3.3
2018-Feb-22 15:29N 47°13' W 002°58'  
2018-Feb-19 21:52N 47°12' W 002°44'410.1
2018-Feb-19 21:29N 47°14' W 002°39'5 9.7
2018-Feb-19 21:00N 47°18' W 002°35'3 6.1
2018-Feb-19 20:30N 47°18' W 002°31'0 0.1
2018-Feb-19 19:59N 47°18' W 002°31'0 0.0
2018-Feb-19 19:30N 47°18' W 002°31'0 0.0
2018-Feb-19 19:00N 47°18' W 002°31'0 0.9
2018-Feb-19 18:30N 47°18' W 002°31'3 6.3
2018-Feb-19 18:00N 47°17' W 002°35'4 8.2
2018-Feb-19 17:29N 47°14' W 002°40'  
2018-Feb-16 22:50N 47°18' W 002°31'0 0.0
2018-Feb-16 22:30N 47°18' W 002°31'0 0.0
2018-Feb-16 22:00N 47°18' W 002°31'0 0.0
2018-Feb-16 21:30N 47°18' W 002°31'0 0.0
2018-Feb-16 21:00N 47°18' W 002°31'0 0.0
2018-Feb-16 20:29N 47°18' W 002°31'0 0.0
2018-Feb-16 20:00N 47°18' W 002°31'0 0.0
2018-Feb-16 19:31N 47°18' W 002°31'0 0.0
2018-Feb-16 18:59N 47°18' W 002°31'0 0.0
2018-Feb-16 18:28N 47°18' W 002°31'0 0.0
2018-Feb-16 18:00N 47°18' W 002°31'0 0.0
2018-Feb-16 17:30N 47°18' W 002°31'0 0.0
2018-Feb-16 17:00N 47°18' W 002°31'0 0.0
2018-Feb-16 16:29N 47°18' W 002°31'0 0.0
2018-Feb-16 15:58N 47°18' W 002°31'0 0.0
2018-Feb-16 15:30N 47°18' W 002°31'0 0.0
2018-Feb-16 14:59N 47°18' W 002°31'0 0.0
2018-Feb-16 14:30N 47°18' W 002°31'0 0.0
2018-Feb-16 13:59N 47°18' W 002°31'0 0.0
2018-Feb-16 13:29N 47°18' W 002°31'0 0.0
2018-Feb-16 12:59N 47°18' W 002°31'0 0.0
2018-Feb-16 12:30N 47°18' W 002°31'0 0.0
2018-Feb-16 12:01N 47°18' W 002°31'0 0.0
2018-Feb-16 11:26N 47°18' W 002°31'0 0.0
2018-Feb-16 10:26N 47°18' W 002°31'0 0.0
2018-Feb-16 09:56N 47°18' W 002°31'0 0.0
2018-Feb-16 09:30N 47°18' W 002°31'0 0.0
2018-Feb-16 09:01N 47°18' W 002°31'0 0.0
2018-Feb-16 08:30N 47°18' W 002°31'0 0.0
2018-Feb-16 08:00N 47°18' W 002°31'0 0.0
2018-Feb-16 07:30N 47°18' W 002°31'0 0.0
2018-Feb-16 07:00N 47°18' W 002°31'0 0.0
2018-Feb-16 06:30N 47°18' W 002°31'0 0.0
2018-Feb-16 06:00N 47°18' W 002°31'0 0.0
2018-Feb-16 05:29N 47°18' W 002°31'0 0.0
2018-Feb-16 05:01N 47°18' W 002°31'0 0.0
2018-Feb-16 04:30N 47°18' W 002°31'0 0.0
2018-Feb-16 04:00N 47°18' W 002°31'0 0.3
2018-Feb-16 03:29N 47°18' W 002°31'0 0.0
2018-Feb-16 02:59N 47°18' W 002°31'0 0.1
2018-Feb-16 02:30N 47°18' W 002°31'0 0.0
2018-Feb-16 02:00N 47°18' W 002°31'0 0.0
2018-Feb-16 01:30N 47°18' W 002°31'0 0.0
2018-Feb-16 01:00N 47°18' W 002°31'3 5.6
2018-Feb-16 00:30N 47°17' W 002°35'510.0
2018-Feb-16 00:00N 47°13' W 002°38'510.2
2018-Feb-15 23:30N 47°08' W 002°41'  
Track history (hours):
 
Tides and Currents Weather Stations Pressure Air Temp Water Temp Dewpoint Dewpoint Depression Visibility Wind Speed Wind Dir Waves Ship Positions

F/V Quentin Gregoire

Last reported at 2018-Feb-23 10:30 UTC. Time now 2018-Feb-23 10:46 UTC.
Position N 47°18' W 002°31'.

Length 18 m.

Type: Fishing. MMSI: 228240600.

Date/timePositionNaut miles runAvg speedWind from/ knotsBaromVisibWave heightAir tempDewpointWater temp
2018-Feb-23 10:30N 47°18' W 002°31'0 0.0
2018-Feb-23 09:59N 47°18' W 002°31'0 0.0
2018-Feb-23 09:29N 47°18' W 002°31'0 0.0
2018-Feb-23 09:00N 47°18' W 002°31'0 0.0
2018-Feb-23 07:53N 47°18' W 002°31'0 0.0
2018-Feb-23 07:22N 47°18' W 002°31'0 0.0
2018-Feb-23 06:59N 47°18' W 002°31'0 0.0
2018-Feb-23 06:30N 47°18' W 002°31'0 0.0
2018-Feb-23 05:59N 47°18' W 002°31'0 0.0
2018-Feb-23 05:29N 47°18' W 002°31'0 0.0
2018-Feb-23 04:58N 47°18' W 002°31'0 0.0
2018-Feb-23 04:30N 47°18' W 002°31'0 0.0
2018-Feb-23 03:58N 47°18' W 002°31'0 0.0
2018-Feb-23 03:30N 47°18' W 002°31'0 0.0
2018-Feb-23 03:00N 47°18' W 002°31'0 0.0
2018-Feb-23 02:30N 47°18' W 002°31'0 0.0
2018-Feb-23 02:00N 47°18' W 002°31'0 0.0
2018-Feb-23 01:30N 47°18' W 002°31'0 0.0
2018-Feb-23 01:00N 47°18' W 002°31'0 0.0
2018-Feb-23 00:31N 47°18' W 002°31'0 0.0
2018-Feb-23 00:00N 47°18' W 002°31'0 0.0
2018-Feb-22 23:30N 47°18' W 002°31'0 0.0
2018-Feb-22 23:00N 47°18' W 002°31'0 0.2
2018-Feb-22 22:30N 47°18' W 002°31'0 0.0
2018-Feb-22 21:59N 47°18' W 002°31'2 4.5
2018-Feb-22 21:30N 47°19' W 002°34'4 8.7
2018-Feb-22 21:00N 47°19' W 002°40'5 8.8
2018-Feb-22 20:28N 47°16' W 002°46'3 5.0
2018-Feb-22 19:58N 47°14' W 002°49'1 2.6
2018-Feb-22 19:30N 47°15' W 002°50'2 2.9
2018-Feb-22 18:59N 47°16' W 002°52'1 2.5
2018-Feb-22 18:30N 47°16' W 002°54'1 2.4
2018-Feb-22 17:53N 47°15' W 002°55'2 0.9
2018-Feb-22 15:42N 47°13' W 002°57'1 3.3
2018-Feb-22 15:29N 47°13' W 002°58'  
2018-Feb-19 21:52N 47°12' W 002°44'410.1
2018-Feb-19 21:29N 47°14' W 002°39'5 9.7
2018-Feb-19 21:00N 47°18' W 002°35'3 6.1
2018-Feb-19 20:30N 47°18' W 002°31'0 0.1
2018-Feb-19 19:59N 47°18' W 002°31'0 0.0
2018-Feb-19 19:30N 47°18' W 002°31'0 0.0
2018-Feb-19 19:00N 47°18' W 002°31'0 0.9
2018-Feb-19 18:30N 47°18' W 002°31'3 6.3
2018-Feb-19 18:00N 47°17' W 002°35'4 8.2
2018-Feb-19 17:29N 47°14' W 002°40'  
2018-Feb-16 22:50N 47°18' W 002°31'0 0.0
2018-Feb-16 22:30N 47°18' W 002°31'0 0.0
2018-Feb-16 22:00N 47°18' W 002°31'0 0.0
2018-Feb-16 21:30N 47°18' W 002°31'0 0.0
2018-Feb-16 21:00N 47°18' W 002°31'0 0.0
2018-Feb-16 20:29N 47°18' W 002°31'0 0.0
2018-Feb-16 20:00N 47°18' W 002°31'0 0.0
2018-Feb-16 19:31N 47°18' W 002°31'0 0.0
2018-Feb-16 18:59N 47°18' W 002°31'0 0.0
2018-Feb-16 18:28N 47°18' W 002°31'0 0.0
2018-Feb-16 18:00N 47°18' W 002°31'0 0.0
2018-Feb-16 17:30N 47°18' W 002°31'0 0.0
2018-Feb-16 17:00N 47°18' W 002°31'0 0.0
2018-Feb-16 16:29N 47°18' W 002°31'0 0.0
2018-Feb-16 15:58N 47°18' W 002°31'0 0.0
2018-Feb-16 15:30N 47°18' W 002°31'0 0.0
2018-Feb-16 14:59N 47°18' W 002°31'0 0.0
2018-Feb-16 14:30N 47°18' W 002°31'0 0.0
2018-Feb-16 13:59N 47°18' W 002°31'0 0.0
2018-Feb-16 13:29N 47°18' W 002°31'0 0.0
2018-Feb-16 12:59N 47°18' W 002°31'0 0.0
2018-Feb-16 12:30N 47°18' W 002°31'0 0.0
2018-Feb-16 12:01N 47°18' W 002°31'0 0.0
2018-Feb-16 11:26N 47°18' W 002°31'0 0.0
2018-Feb-16 10:26N 47°18' W 002°31'0 0.0
2018-Feb-16 09:56N 47°18' W 002°31'0 0.0
2018-Feb-16 09:30N 47°18' W 002°31'0 0.0
2018-Feb-16 09:01N 47°18' W 002°31'0 0.0
2018-Feb-16 08:30N 47°18' W 002°31'0 0.0
2018-Feb-16 08:00N 47°18' W 002°31'0 0.0
2018-Feb-16 07:30N 47°18' W 002°31'0 0.0
2018-Feb-16 07:00N 47°18' W 002°31'0 0.0
2018-Feb-16 06:30N 47°18' W 002°31'0 0.0
2018-Feb-16 06:00N 47°18' W 002°31'0 0.0
2018-Feb-16 05:29N 47°18' W 002°31'0 0.0
2018-Feb-16 05:01N 47°18' W 002°31'0 0.0
2018-Feb-16 04:30N 47°18' W 002°31'0 0.0
2018-Feb-16 04:00N 47°18' W 002°31'0 0.3
2018-Feb-16 03:29N 47°18' W 002°31'0 0.0
2018-Feb-16 02:59N 47°18' W 002°31'0 0.1
2018-Feb-16 02:30N 47°18' W 002°31'0 0.0
2018-Feb-16 02:00N 47°18' W 002°31'0 0.0
2018-Feb-16 01:30N 47°18' W 002°31'0 0.0
2018-Feb-16 01:00N 47°18' W 002°31'3 5.6
2018-Feb-16 00:30N 47°17' W 002°35'510.0
2018-Feb-16 00:00N 47°13' W 002°38'510.2
2018-Feb-15 23:30N 47°08' W 002°41'  

Dump ship's entire track history